Time;durP1;ratioP1;P1;durP2;ratioP2;P2;SDS_P1;SDS_P2;PMS_P1;PMS_P2;Temp;Humidity;BMP_temperature;BMP_pressure;BME280_temperature;BME280_humidity;BME280_pressure;Samples;Min_cycle;Max_cycle;Signal;HPM_P1;HPM_P2
2021/09/02 00:00:27;;;;;;;12.90;11.70;;;;;;;;;;5120106;27;24424;-63
2021/09/02 00:02:52;;;;;;;12.60;11.60;;;;;;;;;;5115192;27;24470;-62
2021/09/02 00:05:17;;;;;;;11.90;10.80;;;;;;;;;;5109484;27;24414;-62
2021/09/02 00:07:42;;;;;;;13.20;12.10;;;;;;;;;;5108996;28;24423;-62
2021/09/02 00:10:08;;;;;;;12.40;11.38;;;;;;;;;;5109223;27;24414;-62
2021/09/02 00:12:33;;;;;;;13.55;12.35;;;;;;;;;;5122468;27;24443;-62
2021/09/02 00:14:58;;;;;;;12.70;11.50;;;;;;;;;;5110984;27;24981;-62
2021/09/02 00:17:23;;;;;;;12.50;11.40;;;;;;;;;;5116377;27;24508;-62
2021/09/02 00:19:48;;;;;;;12.85;11.65;;;;;;;;;;5108815;27;24513;-62
2021/09/02 00:22:14;;;;;;;12.18;11.07;;;;;;;;;;5111136;27;24422;-63
2021/09/02 00:24:39;;;;;;;12.67;11.47;;;;;;;;;;5113106;27;25085;-62
2021/09/02 00:27:04;;;;;;;11.20;10.30;;;;;;;;;;5112090;27;24448;-62
2021/09/02 00:29:30;;;;;;;12.20;11.10;;;;;;;;;;5108074;28;24418;-62
2021/09/02 00:31:55;;;;;;;11.57;10.48;;;;;;;;;;5108528;28;24417;-62
2021/09/02 00:34:20;;;;;;;12.27;11.18;;;;;;;;;;5117847;27;25033;-62
2021/09/02 00:36:45;;;;;;;12.23;11.20;;;;;;;;;;5111726;27;24405;-62
2021/09/02 00:39:10;;;;;;;12.10;11.10;;;;;;;;;;5107973;28;24558;-62
2021/09/02 00:41:35;;;;;;;10.73;9.82;;;;;;;;;;5108465;28;24756;-62
2021/09/02 00:44:01;;;;;;;12.03;10.93;;;;;;;;;;5113355;27;24408;-62
2021/09/02 00:46:26;;;;;;;12.35;11.35;;;;;;;;;;5112401;27;24426;-62
2021/09/02 00:48:51;;;;;;;12.50;11.40;;;;;;;;;;5113741;27;24413;-62
2021/09/02 00:51:17;;;;;;;12.27;11.17;;;;;;;;;;5111626;27;24780;-62
2021/09/02 00:53:43;;;;;;;11.85;10.93;;;;;;;;;;5107817;27;24512;-62
2021/09/02 00:56:08;;;;;;;12.57;11.48;;;;;;;;;;5108238;27;24475;-61
2021/09/02 00:58:33;;;;;;;12.70;11.70;;;;;;;;;;5107937;27;24962;-62
2021/09/02 01:00:59;;;;;;;13.30;12.10;;;;;;;;;;5108102;28;24414;-62
2021/09/02 01:03:24;;;;;;;13.10;11.90;;;;;;;;;;5108183;28;24497;-61
2021/09/02 01:05:51;;;;;;;12.60;11.50;;;;;;;;;;5116291;27;24497;-62
2021/09/02 01:08:16;;;;;;;12.52;11.43;;;;;;;;;;5108069;28;24439;-62
2021/09/02 01:10:42;;;;;;;12.27;11.17;;;;;;;;;;5107504;27;24417;-61
2021/09/02 01:13:07;;;;;;;12.10;11.00;;;;;;;;;;5108619;28;24784;-62
2021/09/02 01:15:32;;;;;;;12.40;11.30;;;;;;;;;;5109900;28;24989;-60
2021/09/02 01:17:58;;;;;;;12.48;11.38;;;;;;;;;;5112896;28;25315;-61
2021/09/02 01:20:25;;;;;;;12.57;11.38;;;;;;;;;;5112069;28;24412;-61
2021/09/02 01:22:51;;;;;;;11.50;10.50;;;;;;;;;;5098416;28;24408;-62
2021/09/02 01:25:21;;;;;;;11.27;10.30;;;;;;;;;;5117919;28;24506;-60
2021/09/02 01:27:48;;;;;;;12.25;11.25;;;;;;;;;;5110343;28;24413;-62
2021/09/02 01:30:14;;;;;;;11.80;10.80;;;;;;;;;;5119767;28;24575;-62
2021/09/02 01:32:40;;;;;;;12.50;11.50;;;;;;;;;;5110129;28;25034;-63
2021/09/02 01:35:06;;;;;;;12.65;11.65;;;;;;;;;;5116861;28;25025;-61
2021/09/02 01:37:39;;;;;;;11.40;10.40;;;;;;;;;;5118355;28;24448;-61
2021/09/02 01:40:06;;;;;;;12.05;10.95;;;;;;;;;;5118155;28;24429;-61
2021/09/02 01:42:31;;;;;;;12.45;11.35;;;;;;;;;;5117133;28;24772;-61
2021/09/02 01:44:56;;;;;;;13.77;12.48;;;;;;;;;;5107520;28;25065;-61
2021/09/02 01:47:25;;;;;;;12.60;11.50;;;;;;;;;;5119665;27;24422;-61
2021/09/02 01:49:51;;;;;;;12.90;11.80;;;;;;;;;;5108165;28;24599;-61
2021/09/02 01:52:17;;;;;;;13.07;11.90;;;;;;;;;;5108632;28;25046;-61
2021/09/02 01:54:42;;;;;;;12.25;11.15;;;;;;;;;;5113053;27;24776;-62
2021/09/02 01:57:08;;;;;;;12.40;11.30;;;;;;;;;;5112299;28;24520;-60
2021/09/02 01:59:33;;;;;;;12.00;11.00;;;;;;;;;;5122105;27;24464;-61
2021/09/02 02:01:58;;;;;;;12.33;11.27;;;;;;;;;;5112425;27;24622;-60
2021/09/02 02:04:23;;;;;;;11.88;10.88;;;;;;;;;;5112299;27;24978;-61
2021/09/02 02:06:48;;;;;;;13.43;12.13;;;;;;;;;;5123870;27;24474;-61
2021/09/02 02:09:13;;;;;;;13.90;12.65;;;;;;;;;;5111608;27;24441;-61
2021/09/02 02:11:39;;;;;;;12.80;11.70;;;;;;;;;;5120788;27;24969;-61
2021/09/02 02:14:04;;;;;;;13.60;12.50;;;;;;;;;;5120009;27;24540;-60
2021/09/02 02:16:29;;;;;;;12.87;11.77;;;;;;;;;;5115590;27;24444;-61
2021/09/02 02:18:54;;;;;;;14.10;12.70;;;;;;;;;;5114054;27;24962;-61
2021/09/02 02:21:19;;;;;;;13.27;12.18;;;;;;;;;;5115686;27;24583;-61
2021/09/02 02:23:44;;;;;;;12.10;11.10;;;;;;;;;;5115427;27;24424;-61
2021/09/02 02:26:10;;;;;;;12.68;11.48;;;;;;;;;;5119045;27;25008;-61
2021/09/02 02:28:35;;;;;;;12.55;11.45;;;;;;;;;;5128716;27;24478;-60
2021/09/02 02:31:00;;;;;;;12.82;11.73;;;;;;;;;;5115912;27;24422;-62
2021/09/02 02:33:25;;;;;;;12.07;11.13;;;;;;;;;;5111694;27;25113;-61
2021/09/02 02:35:50;;;;;;;12.43;11.32;;;;;;;;;;5115677;27;24437;-60
2021/09/02 02:38:15;;;;;;;13.80;12.60;;;;;;;;;;5111408;27;24433;-62
2021/09/02 02:40:40;;;;;;;14.00;12.70;;;;;;;;;;5126013;27;24437;-62
2021/09/02 02:43:06;;;;;;;12.68;11.48;;;;;;;;;;5110300;27;24425;-60
2021/09/02 02:45:31;;;;;;;13.73;12.52;;;;;;;;;;5113354;27;24802;-60
2021/09/02 02:47:56;;;;;;;12.40;11.30;;;;;;;;;;5116969;27;24989;-61
2021/09/02 02:50:21;;;;;;;12.45;11.35;;;;;;;;;;5120206;27;24445;-60
2021/09/02 02:52:46;;;;;;;12.00;11.00;;;;;;;;;;5110342;27;24414;-60
2021/09/02 02:55:11;;;;;;;12.43;11.40;;;;;;;;;;5111380;27;24413;-61
2021/09/02 02:57:37;;;;;;;13.60;12.30;;;;;;;;;;5110363;28;24429;-60
2021/09/02 03:00:03;;;;;;;12.70;11.60;;;;;;;;;;5109509;27;24840;-60
2021/09/02 03:02:28;;;;;;;11.68;10.68;;;;;;;;;;5113579;27;24466;-60
2021/09/02 03:04:53;;;;;;;12.70;11.60;;;;;;;;;;5111564;28;24414;-60
2021/09/02 03:07:18;;;;;;;12.05;11.05;;;;;;;;;;5119242;27;24417;-60
2021/09/02 03:09:43;;;;;;;12.13;11.13;;;;;;;;;;5116031;27;24425;-60
2021/09/02 03:12:08;;;;;;;13.47;12.27;;;;;;;;;;5121831;27;24493;-60
2021/09/02 03:14:34;;;;;;;12.43;11.43;;;;;;;;;;5123995;27;24781;-60
2021/09/02 03:16:59;;;;;;;11.65;10.65;;;;;;;;;;5125032;27;24477;-60
2021/09/02 03:19:24;;;;;;;12.70;11.50;;;;;;;;;;5111693;27;24974;-60
2021/09/02 03:21:49;;;;;;;12.13;11.13;;;;;;;;;;5116644;27;24505;-62
2021/09/02 03:24:14;;;;;;;12.13;11.13;;;;;;;;;;5117031;27;24418;-61
2021/09/02 03:26:39;;;;;;;12.70;11.60;;;;;;;;;;5116486;27;24932;-61
2021/09/02 03:29:04;;;;;;;12.20;11.10;;;;;;;;;;5108778;28;24494;-61
2021/09/02 03:31:30;;;;;;;12.37;11.37;;;;;;;;;;5109666;27;24421;-61
2021/09/02 03:33:55;;;;;;;12.57;11.57;;;;;;;;;;5110868;27;24880;-61
2021/09/02 03:36:20;;;;;;;12.00;11.00;;;;;;;;;;5116742;27;24425;-61
2021/09/02 03:38:45;;;;;;;13.30;12.20;;;;;;;;;;5109571;27;24521;-61
2021/09/02 03:41:10;;;;;;;12.00;11.00;;;;;;;;;;5113397;27;24510;-61
2021/09/02 03:43:35;;;;;;;12.20;11.20;;;;;;;;;;5109482;28;24969;-61
2021/09/02 03:46:00;;;;;;;11.27;10.38;;;;;;;;;;5108551;28;24425;-61
2021/09/02 03:48:26;;;;;;;13.30;12.20;;;;;;;;;;5109473;27;24428;-61
2021/09/02 03:50:51;;;;;;;13.02;11.82;;;;;;;;;;5122746;27;24497;-60
2021/09/02 03:53:16;;;;;;;11.80;10.80;;;;;;;;;;5119098;27;24409;-60
2021/09/02 03:55:41;;;;;;;13.13;12.00;;;;;;;;;;5112508;27;25018;-60
2021/09/02 03:58:07;;;;;;;12.93;11.63;;;;;;;;;;5109032;27;24425;-60
2021/09/02 04:00:32;;;;;;;12.60;11.50;;;;;;;;;;5106539;27;24524;-60
2021/09/02 04:02:57;;;;;;;12.80;11.60;;;;;;;;;;5113956;27;24460;-60
2021/09/02 04:05:22;;;;;;;12.00;11.00;;;;;;;;;;5116738;27;25031;-60
2021/09/02 04:07:47;;;;;;;13.47;12.27;;;;;;;;;;5109559;27;25012;-60
2021/09/02 04:10:12;;;;;;;12.35;11.32;;;;;;;;;;5108795;28;24448;-60
2021/09/02 04:12:37;;;;;;;12.80;11.70;;;;;;;;;;5108464;27;24479;-60
2021/09/02 04:15:03;;;;;;;12.87;11.77;;;;;;;;;;5108631;27;24982;-60
2021/09/02 04:17:28;;;;;;;13.30;12.20;;;;;;;;;;5110897;27;24550;-60
2021/09/02 04:19:53;;;;;;;12.90;11.80;;;;;;;;;;5109001;27;24985;-60
2021/09/02 04:22:18;;;;;;;13.27;11.97;;;;;;;;;;5125733;27;24466;-59
2021/09/02 04:24:43;;;;;;;12.98;11.88;;;;;;;;;;5112878;27;24409;-60
2021/09/02 04:27:11;;;;;;;12.23;11.13;;;;;;;;;;5125131;27;24426;-60
2021/09/02 04:29:36;;;;;;;12.50;11.40;;;;;;;;;;5111047;27;24449;-60
2021/09/02 04:32:01;;;;;;;12.47;11.37;;;;;;;;;;5108629;27;24441;-60
2021/09/02 04:34:26;;;;;;;11.50;10.50;;;;;;;;;;5109430;27;24497;-60
2021/09/02 04:36:51;;;;;;;12.95;11.75;;;;;;;;;;5114585;27;24413;-60
2021/09/02 04:39:16;;;;;;;12.88;11.68;;;;;;;;;;5109495;27;24449;-61
2021/09/02 04:41:42;;;;;;;12.40;11.40;;;;;;;;;;5112406;27;24441;-61
2021/09/02 04:44:07;;;;;;;13.23;12.03;;;;;;;;;;5115078;27;24417;-61
2021/09/02 04:46:32;;;;;;;11.85;10.85;;;;;;;;;;5109079;28;24424;-61
2021/09/02 04:48:57;;;;;;;11.63;10.43;;;;;;;;;;5108379;27;24942;-60
2021/09/02 04:51:22;;;;;;;11.60;10.70;;;;;;;;;;5108460;28;24979;-61
2021/09/02 04:53:47;;;;;;;11.30;10.30;;;;;;;;;;5110149;27;24966;-60
2021/09/02 04:56:13;;;;;;;10.80;9.90;;;;;;;;;;5108529;27;24432;-60
2021/09/02 04:58:38;;;;;;;11.60;10.50;;;;;;;;;;5116643;27;24534;-60
2021/09/02 05:01:04;;;;;;;11.37;10.27;;;;;;;;;;5109757;27;25078;-60
2021/09/02 05:03:29;;;;;;;10.10;9.30;;;;;;;;;;5112497;27;24441;-60
2021/09/02 05:05:54;;;;;;;10.50;9.60;;;;;;;;;;5112725;27;24994;-60
2021/09/02 05:08:22;;;;;;;10.35;9.55;;;;;;;;;;5111965;28;24517;-59
2021/09/02 05:10:47;;;;;;;9.93;9.13;;;;;;;;;;5110006;27;24410;-60
2021/09/02 05:13:12;;;;;;;9.60;8.80;;;;;;;;;;5117672;27;24420;-60
2021/09/02 05:15:37;;;;;;;9.10;8.40;;;;;;;;;;5120666;28;24509;-60
2021/09/02 05:18:03;;;;;;;8.77;8.07;;;;;;;;;;5106506;28;24409;-61
2021/09/02 05:20:28;;;;;;;9.50;8.70;;;;;;;;;;5103565;28;24414;-60
2021/09/02 05:22:53;;;;;;;9.60;8.80;;;;;;;;;;5110534;28;24497;-59
2021/09/02 05:25:19;;;;;;;8.70;8.00;;;;;;;;;;5111670;28;24958;-60
2021/09/02 05:27:44;;;;;;;10.30;9.43;;;;;;;;;;5110845;27;24418;-60
2021/09/02 05:30:11;;;;;;;7.50;7.00;;;;;;;;;;5110381;27;25034;-60
2021/09/02 05:32:36;;;;;;;7.73;7.13;;;;;;;;;;5118207;27;24409;-60
2021/09/02 05:35:02;;;;;;;8.20;7.50;;;;;;;;;;5121699;27;24548;-60
2021/09/02 05:37:27;;;;;;;7.53;6.93;;;;;;;;;;5108923;28;24425;-61
2021/09/02 05:39:53;;;;;;;8.10;7.40;;;;;;;;;;5123277;27;24543;-60
2021/09/02 05:42:18;;;;;;;7.30;6.80;;;;;;;;;;5112303;27;24507;-60
2021/09/02 05:44:43;;;;;;;7.03;6.53;;;;;;;;;;5126144;27;24529;-60
2021/09/02 05:47:08;;;;;;;7.10;6.60;;;;;;;;;;5110777;27;24436;-62
2021/09/02 05:49:33;;;;;;;7.10;6.60;;;;;;;;;;5119414;27;24440;-60
2021/09/02 05:51:58;;;;;;;7.10;6.50;;;;;;;;;;5108630;27;24978;-60
2021/09/02 05:54:24;;;;;;;7.50;6.90;;;;;;;;;;5106129;27;24464;-60
2021/09/02 05:56:49;;;;;;;6.97;6.47;;;;;;;;;;5107547;28;24938;-62
2021/09/02 05:59:14;;;;;;;8.10;7.50;;;;;;;;;;5106916;28;24490;-61
2021/09/02 06:01:39;;;;;;;7.40;6.80;;;;;;;;;;5106835;28;25241;-61
2021/09/02 06:04:05;;;;;;;8.47;7.77;;;;;;;;;;5111861;27;25059;-60
2021/09/02 06:06:30;;;;;;;8.77;8.00;;;;;;;;;;5116741;27;25413;-60
2021/09/02 06:08:55;;;;;;;8.00;7.40;;;;;;;;;;5118504;27;24408;-61
2021/09/02 06:11:20;;;;;;;9.80;9.00;;;;;;;;;;5125066;27;24431;-60
2021/09/02 06:13:45;;;;;;;7.30;6.70;;;;;;;;;;5106951;27;24417;-61
2021/09/02 06:16:10;;;;;;;7.35;6.70;;;;;;;;;;5105025;28;24429;-60
2021/09/02 06:18:36;;;;;;;6.70;6.20;;;;;;;;;;5109361;27;24601;-60
2021/09/02 06:21:01;;;;;;;7.90;7.15;;;;;;;;;;5109035;28;25110;-60
2021/09/02 06:23:26;;;;;;;8.45;7.75;;;;;;;;;;5109077;28;25002;-60
2021/09/02 06:25:51;;;;;;;6.93;6.33;;;;;;;;;;5109248;28;24449;-60
2021/09/02 06:28:17;;;;;;;7.30;6.70;;;;;;;;;;5108816;28;25031;-60
2021/09/02 06:30:42;;;;;;;7.07;6.40;;;;;;;;;;5110901;27;25036;-61
2021/09/02 06:33:07;;;;;;;7.07;6.47;;;;;;;;;;5108797;28;24509;-61
2021/09/02 06:35:32;;;;;;;6.70;6.20;;;;;;;;;;5108299;28;24417;-62
2021/09/02 06:37:57;;;;;;;6.30;5.80;;;;;;;;;;5107345;27;25010;-61
2021/09/02 06:40:23;;;;;;;8.57;7.87;;;;;;;;;;5107576;28;24489;-61
2021/09/02 06:42:48;;;;;;;7.57;6.97;;;;;;;;;;5108399;28;24768;-61
2021/09/02 06:45:13;;;;;;;10.00;9.10;;;;;;;;;;5106018;28;24561;-62
2021/09/02 06:47:39;;;;;;;11.10;10.20;;;;;;;;;;5105597;28;24467;-61
2021/09/02 06:50:05;;;;;;;11.35;10.35;;;;;;;;;;5105976;28;24492;-61
2021/09/02 06:52:30;;;;;;;9.60;8.80;;;;;;;;;;5105906;28;24467;-61
2021/09/02 06:54:55;;;;;;;8.23;7.53;;;;;;;;;;5107040;28;24422;-63
2021/09/02 06:57:20;;;;;;;7.70;7.00;;;;;;;;;;5108631;28;24417;-61
2021/09/02 06:59:45;;;;;;;9.50;8.70;;;;;;;;;;5109379;28;24772;-63
2021/09/02 07:02:11;;;;;;;7.47;6.88;;;;;;;;;;5106008;28;24983;-63
2021/09/02 07:04:36;;;;;;;8.40;7.70;;;;;;;;;;5109518;28;24413;-63
2021/09/02 07:07:02;;;;;;;12.82;11.63;;;;;;;;;;5109519;28;24413;-64
2021/09/02 07:09:27;;;;;;;11.87;10.77;;;;;;;;;;5107488;28;24503;-64
2021/09/02 07:11:52;;;;;;;9.57;8.77;;;;;;;;;;5108441;28;24432;-63
2021/09/02 07:14:18;;;;;;;9.90;9.00;;;;;;;;;;5110415;27;24446;-64
2021/09/02 07:16:46;;;;;;;8.40;7.70;;;;;;;;;;5111610;27;24452;-64
2021/09/02 07:19:11;;;;;;;10.00;9.05;;;;;;;;;;5107307;28;24429;-64
2021/09/02 07:21:36;;;;;;;10.50;9.60;;;;;;;;;;5102880;28;24402;-64
2021/09/02 07:24:01;;;;;;;14.20;12.90;;;;;;;;;;5093693;28;24416;-64
2021/09/02 07:26:26;;;;;;;11.00;10.10;;;;;;;;;;5107527;28;24406;-63
2021/09/02 07:28:51;;;;;;;10.63;9.73;;;;;;;;;;5108346;28;24421;-63
2021/09/02 07:31:17;;;;;;;9.90;9.10;;;;;;;;;;5108352;28;24411;-64
2021/09/02 07:33:42;;;;;;;12.50;11.40;;;;;;;;;;5109338;28;24431;-63
2021/09/02 07:36:07;;;;;;;10.50;9.50;;;;;;;;;;5109166;28;24394;-64
2021/09/02 07:38:32;;;;;;;10.90;9.97;;;;;;;;;;5109117;28;24427;-64
2021/09/02 07:40:58;;;;;;;13.63;12.40;;;;;;;;;;5108660;28;24471;-64
2021/09/02 07:43:23;;;;;;;15.80;14.33;;;;;;;;;;5109085;28;24456;-64
2021/09/02 07:45:48;;;;;;;17.40;15.80;;;;;;;;;;5109134;28;24416;-64
2021/09/02 07:48:13;;;;;;;23.90;21.10;;;;;;;;;;5114439;27;24779;-64
2021/09/02 07:50:38;;;;;;;15.97;14.47;;;;;;;;;;5120444;27;24437;-64
2021/09/02 07:53:04;;;;;;;19.90;17.83;;;;;;;;;;5109028;28;24445;-62
2021/09/02 07:55:30;;;;;;;22.20;19.95;;;;;;;;;;5109084;27;24441;-62
2021/09/02 07:57:55;;;;;;;20.60;18.53;;;;;;;;;;5121706;27;25004;-64
2021/09/02 08:00:20;;;;;;;18.90;17.10;;;;;;;;;;5116214;27;24792;-64
2021/09/02 08:02:46;;;;;;;22.70;20.40;;;;;;;;;;5105244;28;24513;-64
2021/09/02 08:05:11;;;;;;;20.95;18.80;;;;;;;;;;5100934;27;24483;-64
2021/09/02 08:07:50;;;;;;;21.13;19.00;;;;;;;;;;5106918;28;24404;-63
2021/09/02 08:10:17;;;;;;;20.05;17.95;;;;;;;;;;5107866;27;24424;-64
2021/09/02 08:12:42;;;;;;;19.35;17.42;;;;;;;;;;5108369;28;24421;-63
2021/09/02 08:15:07;;;;;;;17.67;15.87;;;;;;;;;;5108074;28;24420;-63
2021/09/02 08:17:33;;;;;;;22.42;18.80;;;;;;;;;;5107947;28;24426;-63
2021/09/02 08:19:58;;;;;;;19.37;17.43;;;;;;;;;;5120110;27;24413;-63
2021/09/02 08:22:23;;;;;;;19.10;17.15;;;;;;;;;;5128925;27;24397;-63
2021/09/02 08:24:48;;;;;;;18.67;16.77;;;;;;;;;;5129392;27;24484;-63
2021/09/02 08:27:13;;;;;;;20.60;18.50;;;;;;;;;;5114125;27;24499;-63
2021/09/02 08:29:38;;;;;;;19.92;17.92;;;;;;;;;;5110203;27;24462;-63
2021/09/02 08:32:03;;;;;;;16.90;15.30;;;;;;;;;;5120378;27;24485;-64
2021/09/02 08:34:29;;;;;;;21.63;19.43;;;;;;;;;;5107263;28;24413;-64
2021/09/02 08:36:54;;;;;;;21.60;19.30;;;;;;;;;;5108065;28;24450;-64
2021/09/02 08:39:19;;;;;;;19.27;17.38;;;;;;;;;;5107902;28;24990;-64
2021/09/02 08:41:44;;;;;;;15.83;14.33;;;;;;;;;;5099280;27;24432;-64
2021/09/02 08:44:10;;;;;;;15.30;13.68;;;;;;;;;;5107951;28;25231;-64
2021/09/02 08:46:35;;;;;;;18.37;16.57;;;;;;;;;;5113833;27;24405;-64
2021/09/02 08:49:02;;;;;;;17.03;15.30;;;;;;;;;;5108353;28;25007;-64
2021/09/02 08:51:27;;;;;;;20.10;18.10;;;;;;;;;;5108704;28;25167;-64
2021/09/02 08:53:56;;;;;;;14.35;13.05;;;;;;;;;;5093793;28;24429;-63
2021/09/02 08:56:21;;;;;;;17.00;15.40;;;;;;;;;;5089793;28;24998;-63
2021/09/02 08:58:46;;;;;;;17.90;16.07;;;;;;;;;;5101896;28;24430;-64
2021/09/02 09:01:11;;;;;;;19.27;17.37;;;;;;;;;;5106715;27;24490;-63
2021/09/02 09:03:38;;;;;;;18.40;16.63;;;;;;;;;;5105869;28;24485;-63
2021/09/02 09:06:07;;;;;;;13.55;12.25;;;;;;;;;;5107147;28;24401;-63
2021/09/02 09:08:41;;;;;;;15.43;14.02;;;;;;;;;;5107118;28;24421;-63
2021/09/02 09:11:13;;;;;;;16.08;14.38;;;;;;;;;;5107312;27;24975;-64
2021/09/02 09:13:38;;;;;;;12.90;11.60;;;;;;;;;;5107821;28;24529;-63
2021/09/02 09:16:03;;;;;;;15.07;13.30;;;;;;;;;;5108067;28;24488;-63
2021/09/02 09:18:29;;;;;;;14.67;13.27;;;;;;;;;;5102601;28;24426;-63
2021/09/02 09:21:03;;;;;;;14.20;12.90;;;;;;;;;;5099916;28;24406;-63
2021/09/02 09:23:48;;;;;;;13.50;12.30;;;;;;;;;;5127001;28;24421;-63
2021/09/02 09:26:13;;;;;;;13.15;11.95;;;;;;;;;;5109863;28;24964;-63
2021/09/02 09:28:38;;;;;;;12.32;11.23;;;;;;;;;;5112130;28;24432;-62
2021/09/02 09:31:22;;;;;;;12.73;11.60;;;;;;;;;;5107778;28;24807;-62
2021/09/02 09:33:51;;;;;;;10.40;9.60;;;;;;;;;;5118503;28;24414;-62
2021/09/02 09:36:20;;;;;;;12.00;10.90;;;;;;;;;;5118908;28;24966;-63
2021/09/02 09:38:55;;;;;;;12.10;10.90;;;;;;;;;;5097144;28;24905;-61
2021/09/02 09:41:29;;;;;;;11.75;10.55;;;;;;;;;;5102101;28;24414;-62
2021/09/02 09:44:13;;;;;;;13.40;12.00;;;;;;;;;;5103902;28;24447;-64
2021/09/02 09:46:38;;;;;;;12.02;10.93;;;;;;;;;;5096589;28;24931;-63
2021/09/02 09:49:03;;;;;;;12.25;10.80;;;;;;;;;;5119206;28;24410;-62
2021/09/02 09:51:28;;;;;;;11.07;10.07;;;;;;;;;;5105522;28;24508;-63
2021/09/02 09:53:53;;;;;;;11.57;10.57;;;;;;;;;;5114602;28;24409;-64
2021/09/02 09:56:20;;;;;;;13.18;12.07;;;;;;;;;;5111446;28;24967;-63
2021/09/02 09:58:46;;;;;;;11.63;10.55;;;;;;;;;;5101059;28;24417;-63
2021/09/02 10:01:12;;;;;;;12.83;11.00;;;;;;;;;;5111653;28;24417;-63
2021/09/02 10:03:38;;;;;;;11.95;10.85;;;;;;;;;;5104036;28;24409;-63
2021/09/02 10:06:07;;;;;;;9.40;8.68;;;;;;;;;;5113460;28;24432;-63
2021/09/02 10:08:34;;;;;;;10.63;9.65;;;;;;;;;;5106357;28;24471;-63
2021/09/02 10:11:00;;;;;;;10.50;9.50;;;;;;;;;;5104541;28;25240;-64
2021/09/02 10:13:25;;;;;;;10.90;9.80;;;;;;;;;;5107108;27;24506;-64
2021/09/02 10:15:51;;;;;;;10.97;10.07;;;;;;;;;;5113477;27;25037;-64
2021/09/02 10:18:17;;;;;;;11.32;10.23;;;;;;;;;;5115876;27;24425;-64
2021/09/02 10:20:42;;;;;;;8.52;7.82;;;;;;;;;;5115723;27;25015;-64
2021/09/02 10:23:07;;;;;;;10.27;9.20;;;;;;;;;;5113274;27;24459;-60
2021/09/02 10:25:33;;;;;;;8.07;7.37;;;;;;;;;;5110362;27;24497;-61
2021/09/02 10:27:59;;;;;;;7.70;7.00;;;;;;;;;;5110198;27;24471;-60
2021/09/02 10:30:25;;;;;;;9.05;8.15;;;;;;;;;;5109428;27;24429;-59
2021/09/02 10:32:50;;;;;;;7.90;7.30;;;;;;;;;;5115638;27;25022;-60
2021/09/02 10:35:16;;;;;;;7.13;6.43;;;;;;;;;;5117649;27;24985;-60
2021/09/02 10:37:43;;;;;;;7.47;6.78;;;;;;;;;;5123591;27;24992;-60
2021/09/02 10:40:17;;;;;;;7.72;7.00;;;;;;;;;;5111027;27;24513;-60
2021/09/02 10:42:43;;;;;;;6.60;6.00;;;;;;;;;;5115501;27;24893;-60
2021/09/02 10:45:30;;;;;;;6.80;6.20;;;;;;;;;;5123349;27;24498;-59
2021/09/02 10:48:00;;;;;;;5.90;5.30;;;;;;;;;;5095536;27;25085;-60
2021/09/02 10:50:29;;;;;;;6.70;6.10;;;;;;;;;;5107825;27;24433;-60
2021/09/02 10:53:07;;;;;;;5.72;5.28;;;;;;;;;;5113446;27;24496;-60
2021/09/02 10:55:33;;;;;;;6.07;5.57;;;;;;;;;;5130436;27;24401;-60
2021/09/02 10:58:03;;;;;;;7.15;6.55;;;;;;;;;;5115539;27;24436;-61
2021/09/02 11:00:35;;;;;;;6.28;5.70;;;;;;;;;;5110155;27;24471;-60
2021/09/02 11:03:13;;;;;;;5.40;5.00;;;;;;;;;;5110161;27;24410;-60
2021/09/02 11:05:39;;;;;;;5.95;5.40;;;;;;;;;;5109659;28;24557;-60
2021/09/02 11:08:04;;;;;;;5.90;5.40;;;;;;;;;;5116129;27;24416;-61
2021/09/02 11:10:29;;;;;;;7.05;5.78;;;;;;;;;;5118564;27;24413;-61
2021/09/02 11:13:01;;;;;;;5.70;5.10;;;;;;;;;;5109872;28;25028;-61
2021/09/02 11:15:27;;;;;;;5.72;5.22;;;;;;;;;;5110365;27;24459;-60
2021/09/02 11:17:59;;;;;;;6.30;5.70;;;;;;;;;;5109701;28;24418;-62
2021/09/02 11:20:27;;;;;;;5.45;5.05;;;;;;;;;;5123384;27;24436;-61
2021/09/02 11:23:05;;;;;;;5.47;5.00;;;;;;;;;;5120944;27;24412;-61
2021/09/02 11:25:37;;;;;;;7.15;6.07;;;;;;;;;;5112394;27;25019;-61
2021/09/02 11:28:02;;;;;;;6.28;5.70;;;;;;;;;;5118177;27;24990;-62
2021/09/02 11:30:27;;;;;;;5.13;4.73;;;;;;;;;;5119673;27;24504;-60
2021/09/02 11:32:57;;;;;;;4.40;4.00;;;;;;;;;;5122575;27;24405;-60
2021/09/02 11:35:22;;;;;;;6.00;5.50;;;;;;;;;;5130210;27;24759;-60
2021/09/02 11:37:48;;;;;;;5.40;5.00;;;;;;;;;;5128298;27;24436;-59
2021/09/02 11:40:22;;;;;;;6.63;5.93;;;;;;;;;;5124543;27;24475;-61
2021/09/02 11:42:47;;;;;;;4.55;4.25;;;;;;;;;;5108203;28;24493;-61
2021/09/02 11:45:17;;;;;;;4.63;4.22;;;;;;;;;;5109505;28;24439;-61
2021/09/02 11:47:42;;;;;;;4.85;4.45;;;;;;;;;;5109405;28;24927;-60
2021/09/02 11:50:07;;;;;;;4.90;4.50;;;;;;;;;;5109508;28;24494;-60
2021/09/02 11:52:37;;;;;;;5.20;4.80;;;;;;;;;;5110320;27;24478;-60
2021/09/02 11:55:02;;;;;;;5.70;5.20;;;;;;;;;;5108574;28;24501;-60
2021/09/02 11:57:27;;;;;;;4.80;4.40;;;;;;;;;;5109428;28;24998;-59
2021/09/02 11:59:52;;;;;;;5.40;4.90;;;;;;;;;;5109212;28;25022;-59
2021/09/02 12:02:18;;;;;;;5.60;5.10;;;;;;;;;;5101066;27;24468;-60
2021/09/02 12:04:46;;;;;;;4.85;4.45;;;;;;;;;;5106567;28;24466;-64
2021/09/02 12:07:14;;;;;;;5.50;5.10;;;;;;;;;;5107679;28;24443;-60
2021/09/02 12:09:43;;;;;;;5.60;5.10;;;;;;;;;;5108116;28;24394;-60
2021/09/02 12:12:08;;;;;;;5.47;5.07;;;;;;;;;;5109208;27;24435;-61
2021/09/02 12:14:35;;;;;;;6.00;5.60;;;;;;;;;;5108076;28;25118;-60
2021/09/02 12:17:01;;;;;;;5.45;5.03;;;;;;;;;;5108391;28;24397;-60
2021/09/02 12:19:27;;;;;;;5.05;4.55;;;;;;;;;;5108231;28;25021;-60
2021/09/02 12:21:52;;;;;;;4.70;4.30;;;;;;;;;;5108628;28;24390;-60
2021/09/02 12:24:17;;;;;;;4.80;4.40;;;;;;;;;;5109089;27;24420;-60
2021/09/02 12:26:42;;;;;;;4.57;4.28;;;;;;;;;;5108068;28;24578;-60
2021/09/02 12:29:11;;;;;;;5.05;4.65;;;;;;;;;;5108289;28;24954;-60
2021/09/02 12:31:37;;;;;;;5.07;4.68;;;;;;;;;;5108115;28;24394;-60
2021/09/02 12:34:07;;;;;;;5.00;4.60;;;;;;;;;;5108226;28;24393;-60
2021/09/02 12:36:33;;;;;;;6.10;5.60;;;;;;;;;;5108984;27;24993;-60
2021/09/02 12:39:10;;;;;;;5.70;5.30;;;;;;;;;;5108161;28;24414;-60
2021/09/02 12:41:39;;;;;;;5.90;5.30;;;;;;;;;;5108112;28;24393;-61
2021/09/02 12:44:06;;;;;;;5.00;4.60;;;;;;;;;;5108086;28;24775;-60
2021/09/02 12:46:47;;;;;;;5.13;4.72;;;;;;;;;;5108484;28;24393;-60
2021/09/02 12:49:12;;;;;;;5.20;4.80;;;;;;;;;;5109240;28;24890;-61
2021/09/02 12:51:38;;;;;;;5.05;4.65;;;;;;;;;;5107660;28;25059;-60
2021/09/02 12:54:03;;;;;;;5.00;4.60;;;;;;;;;;5102591;28;24471;-60
2021/09/02 12:56:36;;;;;;;5.00;4.60;;;;;;;;;;5087762;28;24492;-60
2021/09/02 12:59:01;;;;;;;5.43;4.93;;;;;;;;;;5088110;28;24508;-60
2021/09/02 13:01:26;;;;;;;4.87;4.57;;;;;;;;;;5101936;27;25051;-60
2021/09/02 13:03:51;;;;;;;5.72;5.28;;;;;;;;;;5107974;28;24440;-61
2021/09/02 13:06:16;;;;;;;5.82;5.32;;;;;;;;;;5107830;28;24385;-59
2021/09/02 13:08:41;;;;;;;5.33;4.90;;;;;;;;;;5107815;28;24417;-60
2021/09/02 13:11:07;;;;;;;4.60;4.20;;;;;;;;;;5109007;28;24985;-60
2021/09/02 13:13:32;;;;;;;4.65;4.30;;;;;;;;;;5108114;28;24389;-60
2021/09/02 13:15:57;;;;;;;5.13;4.73;;;;;;;;;;5108073;28;24481;-60
2021/09/02 13:18:22;;;;;;;4.68;4.38;;;;;;;;;;5107822;28;24402;-61
2021/09/02 13:20:47;;;;;;;5.10;4.40;;;;;;;;;;5107822;28;24400;-61
2021/09/02 13:23:12;;;;;;;5.35;4.85;;;;;;;;;;5108531;28;24398;-61
2021/09/02 13:25:37;;;;;;;5.10;4.70;;;;;;;;;;5107303;28;24567;-60
2021/09/02 13:28:03;;;;;;;5.00;4.60;;;;;;;;;;5108003;28;24429;-60
2021/09/02 13:30:28;;;;;;;5.10;4.70;;;;;;;;;;5109084;28;24774;-61
2021/09/02 13:32:54;;;;;;;5.10;4.70;;;;;;;;;;5107958;28;24409;-61
2021/09/02 13:35:19;;;;;;;5.03;4.60;;;;;;;;;;5117473;28;24445;-61
2021/09/02 13:37:45;;;;;;;6.00;5.50;;;;;;;;;;5117310;28;24502;-60
2021/09/02 13:40:11;;;;;;;5.43;5.03;;;;;;;;;;5107979;28;24764;-60
2021/09/02 13:42:38;;;;;;;5.63;5.22;;;;;;;;;;5104345;28;24438;-60
2021/09/02 13:45:04;;;;;;;6.63;6.03;;;;;;;;;;5105121;28;24489;-61
2021/09/02 13:47:29;;;;;;;5.20;4.80;;;;;;;;;;5105768;28;24856;-61
2021/09/02 13:49:54;;;;;;;5.50;5.00;;;;;;;;;;5108301;28;24430;-60
2021/09/02 13:52:19;;;;;;;5.72;5.22;;;;;;;;;;5120819;27;24976;-61
2021/09/02 13:54:44;;;;;;;5.88;5.38;;;;;;;;;;5108513;27;24990;-61
2021/09/02 13:57:09;;;;;;;5.65;5.25;;;;;;;;;;5112267;27;24470;-60
2021/09/02 13:59:35;;;;;;;5.37;4.97;;;;;;;;;;5127417;27;24429;-60
2021/09/02 14:02:00;;;;;;;4.80;4.40;;;;;;;;;;5115926;27;25399;-61
2021/09/02 14:04:25;;;;;;;5.10;4.70;;;;;;;;;;5118235;27;24417;-61
2021/09/02 14:06:51;;;;;;;4.90;4.50;;;;;;;;;;5119801;27;24924;-60
2021/09/02 14:09:16;;;;;;;4.80;4.40;;;;;;;;;;5111451;27;24424;-60
2021/09/02 14:11:41;;;;;;;4.90;4.50;;;;;;;;;;5111617;27;25091;-61
2021/09/02 14:14:06;;;;;;;5.00;4.60;;;;;;;;;;5118520;27;24413;-61
2021/09/02 14:16:32;;;;;;;4.60;4.20;;;;;;;;;;5131624;27;24778;-61
2021/09/02 14:18:57;;;;;;;5.07;4.67;;;;;;;;;;5131467;27;24424;-61
2021/09/02 14:21:22;;;;;;;5.00;4.60;;;;;;;;;;5131335;27;24915;-61